createdAt,value
2023-05-14T00:00:43.989Z,89.31
2023-05-14T00:01:45.047Z,93.06
2023-05-14T00:02:45.150Z,90.92
2023-05-14T00:03:45.225Z,90.97
2023-05-14T00:04:44.196Z,91.93
2023-05-14T00:05:45.252Z,87.49
2023-05-14T00:06:45.298Z,92.72
2023-05-14T00:07:44.363Z,89.58
2023-05-14T00:08:45.445Z,93.80
2023-05-14T00:09:44.494Z,89.62
2023-05-14T00:10:45.531Z,92.79
2023-05-14T00:11:44.598Z,91.83
2023-05-14T00:12:45.644Z,87.78
2023-05-14T00:13:44.706Z,93.13
2023-05-14T00:14:44.779Z,93.10
2023-05-14T00:15:45.919Z,91.82
2023-05-14T00:16:44.848Z,87.75
2023-05-14T00:17:45.997Z,87.17
2023-05-14T00:18:46.084Z,89.58
2023-05-14T00:19:45.029Z,88.97
2023-05-14T00:20:45.083Z,89.55
2023-05-14T00:21:45.100Z,90.72
2023-05-14T00:22:46.133Z,88.01
2023-05-14T00:23:45.195Z,90.90
2023-05-14T00:24:45.300Z,91.20
2023-05-14T00:25:46.297Z,89.75
2023-05-14T00:26:45.338Z,90.67
2023-05-14T00:27:46.379Z,87.72
2023-05-14T00:28:45.427Z,88.18
2023-05-14T00:29:45.495Z,88.63
2023-05-14T00:30:46.504Z,91.73
2023-05-14T00:31:46.688Z,90.64
2023-05-14T00:32:46.638Z,90.74
2023-05-14T00:33:46.628Z,84.87
2023-05-14T00:34:46.682Z,90.52
2023-05-14T00:35:45.720Z,89.48
2023-05-14T00:36:45.753Z,89.38
2023-05-14T00:37:46.318Z,87.82
2023-05-14T00:38:46.851Z,88.52
2023-05-14T00:39:46.936Z,91.48
2023-05-14T00:40:46.078Z,90.56
2023-05-14T00:41:45.969Z,89.94
2023-05-14T00:42:47.030Z,86.80
2023-05-14T00:43:47.066Z,88.01
2023-05-14T00:44:47.148Z,87.94
2023-05-14T00:45:47.283Z,86.37
2023-05-14T00:46:46.294Z,88.55
2023-05-14T00:47:47.370Z,88.01
2023-05-14T00:48:47.322Z,92.06
2023-05-14T00:49:46.383Z,87.97
2023-05-14T00:50:47.423Z,88.38
2023-05-14T00:51:47.509Z,86.37
2023-05-14T00:52:47.520Z,85.71
2023-05-14T00:53:46.563Z,90.54
2023-05-14T00:54:46.629Z,87.43
2023-05-14T00:55:46.662Z,88.24
2023-05-14T00:56:47.860Z,90.04
2023-05-14T00:57:46.765Z,88.19
2023-05-14T00:58:47.823Z,88.91
2023-05-14T00:59:47.862Z,89.70
2023-05-14T01:00:47.933Z,87.87
2023-05-14T01:01:47.953Z,91.15
2023-05-14T01:02:47.129Z,87.37
2023-05-14T01:03:47.124Z,89.68
2023-05-14T01:04:47.125Z,90.73
2023-05-14T01:05:47.163Z,86.55
2023-05-14T01:06:48.218Z,87.81
2023-05-14T01:07:48.257Z,87.05
2023-05-14T01:08:48.319Z,88.82
2023-05-14T01:09:47.396Z,89.37
2023-05-14T01:10:47.445Z,85.49
2023-05-14T01:11:47.481Z,86.18
2023-05-14T01:12:47.534Z,88.34
2023-05-14T01:13:47.577Z,84.92
2023-05-14T01:14:47.699Z,87.50
2023-05-14T01:15:48.689Z,87.28
2023-05-14T01:16:48.775Z,84.84
2023-05-14T01:17:48.839Z,86.72
2023-05-14T01:18:48.888Z,88.86
2023-05-14T01:19:48.902Z,85.97
2023-05-14T01:20:48.946Z,88.10
2023-05-14T01:21:48.001Z,86.88
2023-05-14T01:22:49.052Z,87.89
2023-05-14T01:23:49.114Z,91.28
2023-05-14T01:24:48.278Z,87.51
2023-05-14T01:25:49.200Z,87.94
2023-05-14T01:26:48.280Z,88.54
2023-05-14T01:27:49.307Z,85.36
2023-05-14T01:28:48.392Z,85.29
2023-05-14T01:29:49.425Z,85.89
2023-05-14T01:30:49.470Z,85.01
2023-05-14T01:31:49.546Z,87.81
2023-05-14T01:32:49.597Z,86.36
2023-05-14T01:33:48.617Z,88.64
2023-05-14T01:34:48.648Z,88.82
2023-05-14T01:35:49.709Z,89.45
2023-05-14T01:36:49.883Z,85.82
2023-05-14T01:37:49.796Z,84.93
2023-05-14T01:38:49.861Z,87.42
2023-05-14T01:39:49.904Z,88.02
2023-05-14T01:40:49.948Z,83.89
2023-05-14T01:41:49.012Z,88.71
2023-05-14T01:42:50.056Z,86.39
2023-05-14T01:43:49.112Z,86.76
2023-05-14T01:44:50.175Z,86.16
2023-05-14T01:45:50.213Z,82.61
2023-05-14T01:46:50.246Z,86.65
2023-05-14T01:47:50.308Z,85.50
2023-05-14T01:48:50.366Z,84.77
2023-05-14T01:49:50.396Z,87.17
2023-05-14T01:50:50.439Z,87.37
2023-05-14T01:51:50.493Z,88.04
2023-05-14T01:52:49.545Z,85.80
2023-05-14T01:53:50.599Z,85.13
2023-05-14T01:54:50.659Z,85.99
2023-05-14T01:55:50.722Z,86.83
2023-05-14T01:56:50.760Z,84.63
2023-05-14T01:57:49.808Z,86.04
2023-05-14T01:58:49.845Z,83.32
2023-05-14T01:59:49.915Z,84.89
2023-05-14T02:00:50.980Z,87.84
2023-05-14T02:01:50.104Z,84.24
2023-05-14T02:02:50.628Z,85.46
2023-05-14T02:03:51.172Z,86.91
2023-05-14T02:04:51.185Z,84.89
2023-05-14T02:05:50.220Z,86.00
2023-05-14T02:06:50.378Z,86.64
2023-05-14T02:07:50.343Z,84.14
2023-05-14T02:08:50.408Z,87.22
2023-05-14T02:09:51.472Z,85.12
2023-05-14T02:10:50.550Z,87.69
2023-05-14T02:11:50.592Z,88.47
2023-05-14T02:12:51.653Z,87.36
2023-05-14T02:13:50.688Z,87.49
2023-05-14T02:14:51.756Z,84.96
2023-05-14T02:15:51.832Z,86.24
2023-05-14T02:16:51.876Z,87.88
2023-05-14T02:17:51.019Z,85.19
2023-05-14T02:18:51.998Z,83.79
2023-05-14T02:19:51.026Z,84.72
2023-05-14T02:20:52.092Z,84.62
2023-05-14T02:21:51.262Z,85.37
2023-05-14T02:22:52.182Z,84.67
2023-05-14T02:23:52.241Z,84.73
2023-05-14T02:24:52.294Z,84.91
2023-05-14T02:25:52.350Z,83.63
2023-05-14T02:26:52.410Z,83.84
2023-05-14T02:27:51.465Z,83.09
2023-05-14T02:28:52.521Z,83.85
2023-05-14T02:29:51.566Z,84.69
2023-05-14T02:30:52.625Z,82.04
2023-05-14T02:31:51.774Z,81.87
2023-05-14T02:32:51.893Z,86.06
2023-05-14T02:33:52.797Z,85.69
2023-05-14T02:34:51.841Z,83.79
2023-05-14T02:35:51.906Z,85.45
2023-05-14T02:36:52.946Z,83.39
2023-05-14T02:37:52.999Z,86.03
2023-05-14T02:38:53.062Z,88.72
2023-05-14T02:39:52.124Z,83.64
2023-05-14T02:40:52.201Z,86.02
2023-05-14T02:41:53.212Z,82.38
2023-05-14T02:42:52.267Z,82.02
2023-05-14T02:43:52.322Z,84.95
2023-05-14T02:44:52.405Z,84.26
2023-05-14T02:45:53.437Z,83.59
2023-05-14T02:46:53.498Z,82.92
2023-05-14T02:47:53.586Z,84.54
2023-05-14T02:48:52.619Z,84.93
2023-05-14T02:49:53.651Z,86.86
2023-05-14T02:50:53.704Z,83.92
2023-05-14T02:51:53.753Z,85.17
2023-05-14T02:52:52.814Z,83.49
2023-05-14T02:53:53.868Z,84.58
2023-05-14T02:54:53.929Z,85.78
2023-05-14T02:55:54.020Z,85.54
2023-05-14T02:56:53.032Z,80.70
2023-05-14T02:57:54.098Z,85.51
2023-05-14T02:58:54.144Z,82.10
2023-05-14T02:59:54.204Z,83.16
2023-05-14T03:00:54.330Z,83.02
2023-05-14T03:01:54.327Z,84.59
2023-05-14T03:02:53.614Z,86.27
2023-05-14T03:03:54.441Z,86.08
2023-05-14T03:04:54.461Z,83.06
2023-05-14T03:05:54.550Z,82.65
2023-05-14T03:06:53.590Z,84.07
2023-05-14T03:07:54.615Z,84.90
2023-05-14T03:08:54.696Z,83.14
2023-05-14T03:09:54.743Z,83.90
2023-05-14T03:10:53.785Z,82.62
2023-05-14T03:11:53.846Z,82.60
2023-05-14T03:12:54.889Z,83.56
2023-05-14T03:13:53.953Z,86.74
2023-05-14T03:14:55.009Z,82.46
2023-05-14T03:15:55.179Z,83.18
2023-05-14T03:16:54.159Z,80.40
2023-05-14T03:17:55.206Z,80.26
2023-05-14T03:18:55.259Z,84.10
2023-05-14T03:19:55.299Z,83.27
2023-05-14T03:20:54.338Z,79.42
2023-05-14T03:21:54.406Z,84.02
2023-05-14T03:22:55.463Z,81.19
2023-05-14T03:23:54.639Z,82.65
2023-05-14T03:24:55.571Z,82.54
2023-05-14T03:25:55.658Z,81.14
2023-05-14T03:26:55.676Z,80.78
2023-05-14T03:27:55.926Z,84.31
2023-05-14T03:28:54.772Z,81.98
2023-05-14T03:29:55.820Z,82.92
2023-05-14T03:30:55.909Z,83.35
2023-05-14T03:31:55.929Z,82.22
2023-05-14T03:32:56.026Z,83.53
2023-05-14T03:33:56.046Z,81.43
2023-05-14T03:34:56.113Z,80.49
2023-05-14T03:35:56.197Z,83.25
2023-05-14T03:36:56.229Z,81.28
2023-05-14T03:37:56.286Z,82.17
2023-05-14T03:38:56.327Z,83.89
2023-05-14T03:39:56.389Z,81.79
2023-05-14T03:40:55.496Z,80.29
2023-05-14T03:41:56.506Z,82.41
2023-05-14T03:42:56.571Z,82.44
2023-05-14T03:43:55.627Z,79.43
2023-05-14T03:44:55.687Z,82.38
2023-05-14T03:45:55.768Z,84.67
2023-05-14T03:46:56.806Z,80.66
2023-05-14T03:47:56.908Z,78.19
2023-05-14T03:48:55.951Z,82.18
2023-05-14T03:49:56.971Z,77.67
2023-05-14T03:50:57.020Z,80.14
2023-05-14T03:51:57.130Z,78.93
2023-05-14T03:52:57.129Z,83.72
2023-05-14T03:53:56.191Z,81.41
2023-05-14T03:54:56.259Z,80.08
2023-05-14T03:55:57.308Z,81.58
2023-05-14T03:56:56.355Z,78.38
2023-05-14T03:57:56.403Z,80.40
2023-05-14T03:58:57.464Z,81.00
2023-05-14T03:59:57.521Z,78.04
2023-05-14T04:00:57.570Z,80.31
2023-05-14T04:01:57.916Z,81.17
2023-05-14T04:02:56.833Z,83.81
2023-05-14T04:03:57.765Z,79.46
2023-05-14T04:04:56.824Z,81.89
2023-05-14T04:05:56.867Z,81.26
2023-05-14T04:06:57.914Z,78.59
2023-05-14T04:07:58.003Z,80.48
2023-05-14T04:08:58.020Z,78.26
2023-05-14T04:09:58.071Z,79.32
2023-05-14T04:10:57.131Z,75.39
2023-05-14T04:11:58.186Z,82.38
2023-05-14T04:12:57.230Z,80.81
2023-05-14T04:13:58.308Z,81.17
2023-05-14T04:14:57.350Z,81.96
2023-05-14T04:15:57.517Z,79.68
2023-05-14T04:16:59.568Z,79.44
2023-05-14T04:17:57.546Z,79.13
2023-05-14T04:18:58.533Z,81.36
2023-05-14T04:19:57.440Z,82.46
2023-05-14T04:20:58.443Z,79.71
2023-05-14T04:21:58.432Z,82.89
2023-05-14T04:22:57.408Z,82.19
2023-05-14T04:23:57.438Z,78.82
2023-05-14T04:24:58.405Z,81.24
2023-05-14T04:25:57.405Z,77.45
2023-05-14T04:26:58.407Z,79.26
2023-05-14T04:27:58.396Z,78.04
2023-05-14T04:28:58.381Z,77.31
2023-05-14T04:29:58.361Z,78.99
2023-05-14T04:30:58.365Z,79.21
2023-05-14T04:31:57.394Z,79.24
2023-05-14T04:32:58.373Z,79.86
2023-05-14T04:33:57.326Z,75.87
2023-05-14T04:34:57.317Z,79.95
2023-05-14T04:35:58.324Z,80.31
2023-05-14T04:36:58.324Z,77.17
2023-05-14T04:37:58.305Z,78.27
2023-05-14T04:38:58.300Z,77.34
2023-05-14T04:39:57.322Z,78.22
2023-05-14T04:40:57.290Z,80.38
2023-05-14T04:41:58.282Z,79.69
2023-05-14T04:42:58.313Z,81.24
2023-05-14T04:43:57.368Z,79.33
2023-05-14T04:44:58.431Z,80.48
2023-05-14T04:45:57.563Z,77.58
2023-05-14T04:46:58.547Z,78.43
2023-05-14T04:47:58.674Z,77.63
2023-05-14T04:48:57.645Z,79.88
2023-05-14T04:49:58.680Z,81.21
2023-05-14T04:50:57.740Z,77.36
2023-05-14T04:51:58.798Z,80.80
2023-05-14T04:52:58.852Z,76.33
2023-05-14T04:53:58.934Z,79.00
2023-05-14T04:54:58.951Z,78.79
2023-05-14T04:55:59.024Z,76.16
2023-05-14T04:56:59.052Z,77.59
2023-05-14T04:57:59.103Z,76.00
2023-05-14T04:58:59.147Z,76.82
2023-05-14T04:59:59.204Z,77.30
2023-05-14T05:00:59.295Z,78.43
2023-05-14T05:01:59.336Z,75.06
2023-05-14T05:02:59.474Z,77.87
2023-05-14T05:03:59.498Z,75.71
2023-05-14T05:04:59.477Z,79.85
2023-05-14T05:05:59.535Z,79.01
2023-05-14T05:06:59.588Z,77.03
2023-05-14T05:07:58.750Z,79.17
2023-05-14T05:09:01.831Z,77.47
2023-05-14T05:09:59.698Z,79.34
2023-05-14T05:10:58.690Z,77.69
2023-05-14T05:11:59.688Z,78.53
2023-05-14T05:12:58.668Z,76.54
2023-05-14T05:13:58.669Z,76.45
2023-05-14T05:14:59.651Z,77.02
2023-05-14T05:15:58.667Z,74.09
2023-05-14T05:16:59.665Z,74.70
2023-05-14T05:17:58.661Z,74.93
2023-05-14T05:18:59.729Z,76.22
2023-05-14T05:19:58.621Z,73.13
2023-05-14T05:20:58.603Z,76.62
2023-05-14T05:21:58.609Z,76.48
2023-05-14T05:22:59.604Z,77.02
2023-05-14T05:23:59.642Z,78.35
2023-05-14T05:24:58.583Z,76.25
2023-05-14T05:25:59.585Z,75.77
2023-05-14T05:26:58.581Z,79.53
2023-05-14T05:27:59.599Z,72.41
2023-05-14T05:28:58.558Z,79.18
2023-05-14T05:29:58.550Z,74.89
2023-05-14T05:30:59.597Z,79.56
2023-05-14T05:31:58.549Z,77.44
2023-05-14T05:32:58.637Z,74.32
2023-05-14T05:33:59.533Z,75.75
2023-05-14T05:34:59.589Z,79.38
2023-05-14T05:35:59.650Z,73.87
2023-05-14T05:36:59.693Z,76.95
2023-05-14T05:38:01.373Z,73.92
2023-05-14T05:38:59.757Z,78.94
2023-05-14T05:39:59.744Z,78.16
2023-05-14T05:40:58.737Z,80.69
2023-05-14T05:41:58.725Z,79.20
2023-05-14T05:42:59.722Z,78.34
2023-05-14T05:43:59.790Z,76.04
2023-05-14T05:44:59.744Z,76.39
2023-05-14T05:45:59.714Z,76.43
2023-05-14T05:46:59.794Z,73.02
2023-05-14T05:47:59.777Z,76.95
2023-05-14T05:48:58.702Z,74.86
2023-05-14T05:49:59.685Z,76.66
2023-05-14T05:50:59.689Z,75.91
2023-05-14T05:51:58.661Z,76.27
2023-05-14T05:52:59.689Z,77.44
2023-05-14T05:53:59.662Z,74.53
2023-05-14T05:54:59.641Z,73.52
2023-05-14T05:55:59.644Z,73.99
2023-05-14T05:56:58.636Z,75.65
2023-05-14T05:57:59.649Z,76.52
2023-05-14T05:58:59.632Z,73.26
2023-05-14T05:59:59.642Z,73.68
2023-05-14T06:00:59.638Z,73.94
2023-05-14T06:01:58.693Z,75.04
2023-05-14T06:02:59.636Z,75.84
2023-05-14T06:03:58.595Z,74.08
2023-05-14T06:04:58.632Z,77.12
2023-05-14T06:05:58.678Z,77.99
2023-05-14T06:06:59.716Z,76.43
2023-05-14T06:07:59.796Z,74.77
2023-05-14T06:08:58.834Z,77.00
2023-05-14T06:09:58.869Z,78.27
2023-05-14T06:10:59.941Z,75.11
2023-05-14T06:11:59.976Z,74.32
2023-05-14T06:12:59.200Z,74.49
2023-05-14T06:14:00.105Z,77.61
2023-05-14T06:15:00.174Z,74.60
2023-05-14T06:15:59.278Z,75.01
2023-05-14T06:16:59.296Z,76.42
2023-05-14T06:18:00.333Z,73.64
2023-05-14T06:18:59.407Z,77.76
2023-05-14T06:20:00.460Z,74.07
2023-05-14T06:20:59.452Z,75.64
2023-05-14T06:21:59.522Z,76.48
2023-05-14T06:23:00.579Z,72.56
2023-05-14T06:23:59.637Z,75.11
2023-05-14T06:25:00.674Z,78.25
2023-05-14T06:26:00.754Z,75.00
2023-05-14T06:26:59.814Z,73.97
2023-05-14T06:28:00.844Z,73.75
2023-05-14T06:29:00.915Z,74.65
2023-05-14T06:30:00.968Z,77.74
2023-05-14T06:31:00.022Z,74.19
2023-05-14T06:32:00.342Z,73.90
2023-05-14T06:33:00.241Z,76.14
2023-05-14T06:34:00.174Z,77.28
2023-05-14T06:35:01.242Z,73.84
2023-05-14T06:36:01.376Z,73.59
2023-05-14T06:37:01.366Z,73.78
2023-05-14T06:38:00.413Z,71.66
2023-05-14T06:39:01.468Z,73.21
2023-05-14T06:40:00.530Z,72.91
2023-05-14T06:41:01.576Z,74.79
2023-05-14T06:42:00.641Z,72.02
2023-05-14T06:43:01.698Z,72.94
2023-05-14T06:44:00.750Z,75.68
2023-05-14T06:45:00.801Z,73.45
2023-05-14T06:46:01.866Z,69.45
2023-05-14T06:47:01.930Z,71.67
2023-05-14T06:48:02.063Z,75.33
2023-05-14T06:49:02.023Z,72.72
2023-05-14T06:50:01.091Z,76.29
2023-05-14T06:51:01.106Z,74.59
2023-05-14T06:52:01.181Z,74.31
2023-05-14T06:53:02.251Z,76.06
2023-05-14T06:54:01.290Z,74.06
2023-05-14T06:55:01.340Z,73.99
2023-05-14T06:56:02.382Z,75.33
2023-05-14T06:57:02.448Z,74.37
2023-05-14T06:58:01.569Z,74.70
2023-05-14T06:59:01.586Z,72.83
2023-05-14T07:00:03.582Z,72.25
2023-05-14T07:01:01.703Z,72.79
2023-05-14T07:02:02.720Z,72.06
2023-05-14T07:03:01.821Z,75.51
2023-05-14T07:04:02.915Z,70.77
2023-05-14T07:05:01.892Z,69.45
2023-05-14T07:06:02.924Z,73.35
2023-05-14T07:07:01.977Z,73.49
2023-05-14T07:08:03.057Z,69.43
2023-05-14T07:09:02.087Z,72.66
2023-05-14T07:10:03.142Z,74.36
2023-05-14T07:11:02.207Z,70.21
2023-05-14T07:12:03.251Z,71.86
2023-05-14T07:13:02.480Z,74.27
2023-05-14T07:14:03.345Z,71.80
2023-05-14T07:15:02.398Z,75.43
2023-05-14T07:16:03.474Z,71.48
2023-05-14T07:17:02.574Z,73.26
2023-05-14T07:18:02.632Z,73.08
2023-05-14T07:19:02.665Z,70.46
2023-05-14T07:20:03.703Z,75.84
2023-05-14T07:21:03.748Z,76.04
2023-05-14T07:22:02.785Z,72.93
2023-05-14T07:23:03.864Z,74.39
2023-05-14T07:24:04.156Z,70.94
2023-05-14T07:25:03.978Z,71.09
2023-05-14T07:26:02.999Z,69.53
2023-05-14T07:27:03.064Z,72.03
2023-05-14T07:28:03.105Z,71.35
2023-05-14T07:29:03.152Z,71.50
2023-05-14T07:30:04.218Z,74.50
2023-05-14T07:31:04.319Z,74.80
2023-05-14T07:32:04.325Z,73.66
2023-05-14T07:33:03.396Z,73.17
2023-05-14T07:34:03.440Z,73.02
2023-05-14T07:35:04.497Z,72.90
2023-05-14T07:36:04.614Z,70.83
2023-05-14T07:37:03.612Z,68.93
2023-05-14T07:38:03.662Z,71.45
2023-05-14T07:39:03.699Z,71.20
2023-05-14T07:40:04.782Z,73.48
2023-05-14T07:41:04.811Z,70.02
2023-05-14T07:42:04.874Z,72.69
2023-05-14T07:43:03.926Z,71.54
2023-05-14T07:44:05.000Z,71.03
2023-05-14T07:45:05.062Z,71.69
2023-05-14T07:46:04.114Z,68.74
2023-05-14T07:47:04.230Z,68.93
2023-05-14T07:48:04.683Z,70.67
2023-05-14T07:49:04.274Z,71.80
2023-05-14T07:50:05.328Z,70.80
2023-05-14T07:51:05.401Z,70.05
2023-05-14T07:52:05.474Z,69.91
2023-05-14T07:53:05.502Z,67.34
2023-05-14T07:54:05.539Z,72.35
2023-05-14T07:55:04.589Z,70.36
2023-05-14T07:56:04.634Z,71.70
2023-05-14T07:57:04.695Z,71.90
2023-05-14T07:58:05.742Z,72.02
2023-05-14T07:59:04.811Z,70.35
2023-05-14T08:00:05.855Z,71.74
2023-05-14T08:01:05.898Z,70.48
2023-05-14T08:02:05.978Z,70.56
2023-05-14T08:03:06.153Z,69.42
2023-05-14T08:04:06.168Z,71.34
2023-05-14T08:05:05.135Z,73.02
2023-05-14T08:06:06.186Z,71.39
2023-05-14T08:07:06.241Z,69.93
2023-05-14T08:08:06.509Z,72.83
2023-05-14T08:09:06.358Z,68.36
2023-05-14T08:10:05.401Z,70.87
2023-05-14T08:11:05.646Z,73.44
2023-05-14T08:12:06.539Z,70.90
2023-05-14T08:13:06.594Z,72.50
2023-05-14T08:14:06.654Z,68.83
2023-05-14T08:15:06.699Z,68.90
2023-05-14T08:16:05.769Z,71.41
2023-05-14T08:17:05.949Z,70.73
2023-05-14T08:18:05.912Z,69.09
2023-05-14T08:19:06.914Z,70.13
2023-05-14T08:20:05.959Z,68.20
2023-05-14T08:21:07.023Z,66.64
2023-05-14T08:22:06.084Z,68.57
2023-05-14T08:23:06.139Z,68.57
2023-05-14T08:24:07.200Z,72.94
2023-05-14T08:25:06.232Z,69.47
2023-05-14T08:26:06.276Z,68.58
2023-05-14T08:27:07.368Z,69.16
2023-05-14T08:28:06.408Z,71.10
2023-05-14T08:29:07.899Z,69.68
2023-05-14T08:30:06.539Z,70.67
2023-05-14T08:31:07.626Z,71.05
2023-05-14T08:32:19.306Z,70.02
2023-05-14T08:33:07.648Z,70.23
2023-05-14T08:34:06.592Z,71.49
2023-05-14T08:35:06.589Z,71.00
2023-05-14T08:36:06.592Z,70.96
2023-05-14T08:37:07.596Z,70.35
2023-05-14T08:38:06.579Z,69.34
2023-05-14T08:39:07.665Z,73.05
2023-05-14T08:40:06.628Z,69.84
2023-05-14T08:41:07.581Z,68.97
2023-05-14T08:42:07.557Z,68.74
2023-05-14T08:43:07.551Z,70.17
2023-05-14T08:44:06.550Z,70.78
2023-05-14T08:45:07.545Z,69.73
2023-05-14T08:46:07.553Z,67.44
2023-05-14T08:47:06.513Z,67.27
2023-05-14T08:48:07.552Z,67.06
2023-05-14T08:49:07.595Z,70.36
2023-05-14T08:50:06.528Z,70.83
2023-05-14T08:51:06.516Z,70.62
2023-05-14T08:52:07.489Z,67.70
2023-05-14T08:53:07.522Z,71.57
2023-05-14T08:54:06.466Z,71.07
2023-05-14T08:55:07.489Z,68.62
2023-05-14T08:56:06.503Z,68.14
2023-05-14T08:57:07.451Z,68.02
2023-05-14T08:58:07.479Z,67.52
2023-05-14T08:59:07.568Z,69.24
2023-05-14T09:00:07.575Z,67.54
2023-05-14T09:01:06.628Z,69.05
2023-05-14T09:02:06.956Z,68.03
2023-05-14T09:03:07.983Z,69.95
2023-05-14T09:04:06.932Z,69.17
2023-05-14T09:05:07.855Z,67.71
2023-05-14T09:06:06.910Z,67.42
2023-05-14T09:07:07.975Z,71.23
2023-05-14T09:08:07.025Z,67.69
2023-05-14T09:09:08.070Z,67.83
2023-05-14T09:10:08.121Z,67.93
2023-05-14T09:11:08.167Z,70.83
2023-05-14T09:12:08.250Z,68.92
2023-05-14T09:13:08.280Z,68.19
2023-05-14T09:14:08.314Z,67.24
2023-05-14T09:15:08.346Z,68.65
2023-05-14T09:16:07.450Z,71.70
2023-05-14T09:17:07.453Z,68.60
2023-05-14T09:18:08.571Z,68.37
2023-05-14T09:19:08.635Z,70.72
2023-05-14T09:20:07.631Z,66.51
2023-05-14T09:21:07.660Z,68.87
2023-05-14T09:22:07.702Z,68.18
2023-05-14T09:23:08.763Z,66.00
2023-05-14T09:24:07.809Z,68.90
2023-05-14T09:25:08.861Z,66.97
2023-05-14T09:26:07.887Z,68.09
2023-05-14T09:27:08.941Z,67.81
2023-05-14T09:28:08.010Z,68.11
2023-05-14T09:29:08.046Z,69.78
2023-05-14T09:30:08.107Z,68.62
2023-05-14T09:31:08.162Z,67.79
2023-05-14T09:32:09.237Z,68.94
2023-05-14T09:33:09.320Z,63.82
2023-05-14T09:34:08.304Z,65.58
2023-05-14T09:35:09.354Z,66.90
2023-05-14T09:36:08.400Z,72.24
2023-05-14T09:37:10.363Z,70.62
2023-05-14T09:38:08.497Z,69.21
2023-05-14T09:39:08.548Z,68.63
2023-05-14T09:40:08.600Z,71.02
2023-05-14T09:41:09.651Z,68.33
2023-05-14T09:42:08.697Z,68.97
2023-05-14T09:43:08.789Z,71.38
2023-05-14T09:44:09.839Z,68.34
2023-05-14T09:45:09.851Z,66.54
2023-05-14T09:46:09.979Z,68.27
2023-05-14T09:47:09.997Z,68.29
2023-05-14T09:48:10.100Z,65.27
2023-05-14T09:49:09.031Z,69.97
2023-05-14T09:50:09.105Z,69.95
2023-05-14T09:51:09.131Z,67.01
2023-05-14T09:52:09.160Z,66.64
2023-05-14T09:53:10.222Z,67.63
2023-05-14T09:54:10.262Z,65.70
2023-05-14T09:55:09.332Z,69.75
2023-05-14T09:56:10.359Z,69.22
2023-05-14T09:57:10.402Z,66.16
2023-05-14T09:58:10.449Z,67.00
2023-05-14T09:59:10.490Z,68.34
2023-05-14T10:00:10.554Z,71.00
2023-05-14T10:01:09.621Z,66.40
2023-05-14T10:02:10.632Z,69.26
2023-05-14T10:03:09.723Z,70.19
2023-05-14T10:04:09.783Z,68.96
2023-05-14T10:05:10.783Z,67.02
2023-05-14T10:06:09.832Z,68.80
2023-05-14T10:07:10.865Z,69.28
2023-05-14T10:08:09.921Z,67.89
2023-05-14T10:09:10.029Z,67.60
2023-05-14T10:10:10.029Z,68.27
2023-05-14T10:11:10.065Z,69.98
2023-05-14T10:12:10.103Z,67.83
2023-05-14T10:13:11.151Z,67.14
2023-05-14T10:14:10.188Z,65.54
2023-05-14T10:15:11.238Z,67.69
2023-05-14T10:16:11.350Z,67.13
2023-05-14T10:17:10.508Z,67.89
2023-05-14T10:18:10.416Z,67.14
2023-05-14T10:19:10.514Z,65.74
2023-05-14T10:20:10.499Z,69.24
2023-05-14T10:21:10.511Z,65.78
2023-05-14T10:22:10.560Z,66.09
2023-05-14T10:23:11.579Z,70.24
2023-05-14T10:24:11.623Z,66.08
2023-05-14T10:25:10.661Z,67.35
2023-05-14T10:26:10.708Z,62.83
2023-05-14T10:27:10.768Z,67.23
2023-05-14T10:28:11.816Z,68.27
2023-05-14T10:29:11.878Z,63.84
2023-05-14T10:30:11.956Z,64.77
2023-05-14T10:31:11.989Z,67.47
2023-05-14T10:32:11.035Z,68.98
2023-05-14T10:33:11.087Z,66.64
2023-05-14T10:34:11.123Z,65.02
2023-05-14T10:35:12.163Z,63.49
2023-05-14T10:36:12.216Z,69.19
2023-05-14T10:37:11.250Z,67.49
2023-05-14T10:38:12.300Z,68.36
2023-05-14T10:39:11.351Z,65.94
2023-05-14T10:40:12.398Z,66.65
2023-05-14T10:41:11.435Z,65.17
2023-05-14T10:42:11.484Z,67.12
2023-05-14T10:43:12.530Z,66.07
2023-05-14T10:44:11.582Z,67.89
2023-05-14T10:45:11.627Z,66.30
2023-05-14T10:46:12.701Z,67.91
2023-05-14T10:47:12.728Z,68.26
2023-05-14T10:48:11.791Z,67.27
2023-05-14T10:49:11.777Z,64.30
2023-05-14T10:50:11.836Z,67.19
2023-05-14T10:51:12.933Z,67.03
2023-05-14T10:52:11.880Z,67.23
2023-05-14T10:53:12.923Z,66.77
2023-05-14T10:54:12.958Z,68.43
2023-05-14T10:55:13.001Z,68.09
2023-05-14T10:56:13.027Z,65.82
2023-05-14T10:57:12.051Z,67.15
2023-05-14T10:58:12.090Z,66.65
2023-05-14T10:59:13.128Z,67.83
2023-05-14T11:00:13.182Z,69.15
2023-05-14T11:01:12.234Z,68.81
2023-05-14T11:02:12.263Z,67.03
2023-05-14T11:03:12.432Z,64.91
2023-05-14T11:04:12.434Z,67.45
2023-05-14T11:05:13.343Z,68.77
2023-05-14T11:06:13.376Z,68.08
2023-05-14T11:07:12.394Z,66.52
2023-05-14T11:08:12.422Z,66.44
2023-05-14T11:09:12.461Z,69.35
2023-05-14T11:10:13.521Z,67.91
2023-05-14T11:11:13.571Z,70.08
2023-05-14T11:12:13.573Z,68.25
2023-05-14T11:13:13.639Z,65.20
2023-05-14T11:14:13.658Z,65.89
2023-05-14T11:15:13.694Z,67.17
2023-05-14T11:16:22.478Z,68.21
2023-05-14T11:17:13.739Z,68.45
2023-05-14T11:18:12.737Z,68.58
2023-05-14T11:19:12.834Z,68.80
2023-05-14T11:20:12.716Z,69.00
2023-05-14T11:21:12.697Z,68.53
2023-05-14T11:22:13.729Z,66.72
2023-05-14T11:23:13.685Z,67.78
2023-05-14T11:24:13.679Z,70.93
2023-05-14T11:25:13.743Z,68.20
2023-05-14T11:26:13.760Z,67.57
2023-05-14T11:27:12.650Z,67.26
2023-05-14T11:28:12.640Z,69.12
2023-05-14T11:29:12.637Z,69.01
2023-05-14T11:30:13.627Z,64.72
2023-05-14T11:31:12.627Z,69.07
2023-05-14T11:32:12.658Z,64.72
2023-05-14T11:33:12.655Z,66.73
2023-05-14T11:34:13.638Z,66.51
2023-05-14T11:35:12.623Z,67.85
2023-05-14T11:36:12.619Z,66.40
2023-05-14T11:37:12.647Z,66.64
2023-05-14T11:38:12.600Z,63.23
2023-05-14T11:39:12.564Z,68.88
2023-05-14T11:40:13.555Z,67.45
2023-05-14T11:41:12.576Z,68.26
2023-05-14T11:42:13.551Z,68.45
2023-05-14T11:43:13.545Z,66.11
2023-05-14T11:44:13.535Z,66.88
2023-05-14T11:45:12.525Z,64.80
2023-05-14T11:46:13.550Z,68.12
2023-05-14T11:47:12.517Z,65.20
2023-05-14T11:48:13.603Z,66.95
2023-05-14T11:49:12.501Z,67.35
2023-05-14T11:50:13.504Z,68.73
2023-05-14T11:51:12.507Z,70.43
2023-05-14T11:52:12.480Z,65.82
2023-05-14T11:53:13.459Z,68.41
2023-05-14T11:54:13.497Z,65.34
2023-05-14T11:55:12.478Z,65.65
2023-05-14T11:56:12.446Z,63.03
2023-05-14T11:57:13.457Z,67.43
2023-05-14T11:58:13.456Z,68.57
2023-05-14T11:59:13.439Z,67.27
2023-05-14T12:00:12.445Z,65.77
2023-05-14T12:01:13.479Z,68.17
2023-05-14T12:02:13.522Z,66.96
2023-05-14T12:03:12.668Z,64.18
2023-05-14T12:04:12.555Z,64.68
2023-05-14T12:05:12.548Z,67.98
2023-05-14T12:06:13.573Z,66.09
2023-05-14T12:07:13.644Z,65.32
2023-05-14T12:08:12.645Z,66.20
2023-05-14T12:09:12.698Z,65.51
2023-05-14T12:10:13.701Z,67.14
2023-05-14T12:11:13.744Z,68.73
2023-05-14T12:12:12.869Z,67.95
2023-05-14T12:13:13.796Z,65.65
2023-05-14T12:14:13.854Z,65.70
2023-05-14T12:15:12.878Z,63.37
2023-05-14T12:16:12.941Z,65.85
2023-05-14T12:17:13.942Z,64.88
2023-05-14T12:18:24.185Z,64.46
2023-05-14T12:19:14.002Z,64.80
2023-05-14T12:20:12.963Z,65.89
2023-05-14T12:21:13.924Z,65.49
2023-05-14T12:22:12.923Z,68.68
2023-05-14T12:23:12.971Z,67.43
2023-05-14T12:24:13.920Z,67.71
2023-05-14T12:25:13.985Z,66.90
2023-05-14T12:26:13.914Z,65.24
2023-05-14T12:27:13.890Z,64.16
2023-05-14T12:28:12.877Z,66.49
2023-05-14T12:29:13.895Z,66.79
2023-05-14T12:30:21.461Z,69.25
2023-05-14T12:31:13.892Z,69.61
2023-05-14T12:32:12.854Z,70.62
2023-05-14T12:33:12.917Z,70.01
2023-05-14T12:34:13.872Z,68.47
2023-05-14T12:35:12.845Z,67.40
2023-05-14T12:36:21.746Z,68.03
2023-05-14T12:37:13.843Z,68.46
2023-05-14T12:38:12.821Z,69.07
2023-05-14T12:39:12.876Z,69.14
2023-05-14T12:40:12.827Z,69.18
2023-05-14T12:41:12.804Z,67.89
2023-05-14T12:42:13.783Z,68.59
2023-05-14T12:43:12.792Z,66.31
2023-05-14T12:44:13.785Z,65.43
2023-05-14T12:45:12.763Z,68.49
2023-05-14T12:46:13.757Z,66.02
2023-05-14T12:47:13.840Z,66.08
2023-05-14T12:48:12.775Z,65.92
2023-05-14T12:49:12.746Z,65.72
2023-05-14T12:50:12.726Z,65.31
2023-05-14T12:51:13.745Z,66.56
2023-05-14T12:53:12.719Z,66.31
2023-05-14T12:54:12.718Z,65.65